Verona, Wisconsin
Current Conditions -  °F | °C
As of 10:35 PM on Wednesday 22 Oct 2014 (Local Time) from KC29 Reporting Station
Clear Clear  
Wind Chill: 35°   Ceiling: Unl
Heat Index: 38°   Visibility: 10mi
Dew Point: 36°   Wind: 5mph
Humidity: 90%   Direction: 140°SE
Pressure: 30.23"   Gusts: NA
Location:  42.99°N, 89.53°W
Report Text: KC29 230335Z AUTO 14004KT 10SM CLR 04/02 A3023 RMK AO1 T00350020
Loading
Personal Weather Stations






























Interactive Weather Map
Tropical Storm Tracking
New forecast layout! Learn more

10-Day Weather Forecast

Advertisements
Track Severe Weather on mobile